createdAt,value
2018-02-07T00:00:08.456Z,38.00
2018-02-07T00:01:11.380Z,31.00
2018-02-07T00:02:14.511Z,31.00
2018-02-07T00:03:17.788Z,30.00
2018-02-07T00:04:21.265Z,32.00
2018-02-07T00:05:24.495Z,33.00
2018-02-07T00:06:30.321Z,31.50
2018-02-07T00:07:33.355Z,34.50
2018-02-07T00:08:36.260Z,42.00
2018-02-07T00:09:39.495Z,34.50
2018-02-07T00:10:42.454Z,33.50
2018-02-07T00:11:45.434Z,30.50
2018-02-07T00:12:48.346Z,30.50
2018-02-07T00:13:51.297Z,35.50
2018-02-07T00:14:54.235Z,34.50
2018-02-07T00:15:57.627Z,30.50
2018-02-07T00:17:00.548Z,36.00
2018-02-07T00:18:03.473Z,35.00
2018-02-07T00:19:06.384Z,34.50
2018-02-07T00:20:09.294Z,35.00
2018-02-07T00:21:12.259Z,32.00
2018-02-07T00:22:15.646Z,33.00
2018-02-07T00:23:18.570Z,40.00
2018-02-07T00:24:21.487Z,34.00
2018-02-07T00:25:24.391Z,38.50
2018-02-07T00:26:27.313Z,33.00
2018-02-07T00:27:30.303Z,34.00
2018-02-07T00:28:33.544Z,34.50
2018-02-07T00:29:36.454Z,30.50
2018-02-07T00:30:39.370Z,31.00
2018-02-07T00:31:42.348Z,32.00
2018-02-07T00:32:45.269Z,40.50
2018-02-07T00:33:48.177Z,37.50
2018-02-07T00:34:51.499Z,35.50
2018-02-07T00:35:54.399Z,31.00
2018-02-07T00:36:57.292Z,42.00
2018-02-07T00:38:00.243Z,32.50
2018-02-07T00:39:03.354Z,34.00
2018-02-07T00:40:06.434Z,34.00
2018-02-07T00:41:09.755Z,36.00
2018-02-07T00:42:12.681Z,32.00
2018-02-07T00:43:15.699Z,36.50
2018-02-07T00:44:18.698Z,38.00
2018-02-07T00:45:21.706Z,35.50
2018-02-07T00:46:24.639Z,39.50
2018-02-07T00:47:27.984Z,36.00
2018-02-07T00:48:30.812Z,38.00
2018-02-07T00:49:33.714Z,36.50
2018-02-07T00:50:36.627Z,34.50
2018-02-07T00:51:39.565Z,42.00
2018-02-07T00:52:42.478Z,41.00
2018-02-07T00:53:45.667Z,39.50
2018-02-07T00:54:48.588Z,38.00
2018-02-07T00:55:51.498Z,41.00
2018-02-07T00:56:54.446Z,38.00
2018-02-07T00:57:57.362Z,36.50
2018-02-07T00:59:00.283Z,38.00
2018-02-07T01:00:03.514Z,35.00
2018-02-07T01:01:06.454Z,40.00
2018-02-07T01:02:09.372Z,38.00
2018-02-07T01:03:12.284Z,37.50
2018-02-07T01:04:15.202Z,29.50
2018-02-07T01:05:18.275Z,37.00
2018-02-07T01:06:21.672Z,37.00
2018-02-07T01:07:24.576Z,35.50
2018-02-07T01:08:27.494Z,35.00
2018-02-07T01:09:30.456Z,36.50
2018-02-07T01:10:33.360Z,43.50
2018-02-07T01:11:36.286Z,40.00
2018-02-07T01:12:39.514Z,31.00
2018-02-07T01:13:42.393Z,35.50
2018-02-07T01:14:45.317Z,34.50
2018-02-07T01:15:48.240Z,36.50
2018-02-07T01:16:51.145Z,36.50
2018-02-07T01:17:54.076Z,36.00
2018-02-07T01:18:57.272Z,37.00
2018-02-07T01:20:00.183Z,31.00
2018-02-07T01:21:03.111Z,34.50
2018-02-07T01:22:06.086Z,37.00
2018-02-07T01:23:09.023Z,35.00
2018-02-07T01:24:11.958Z,38.50
2018-02-07T01:25:15.213Z,40.50
2018-02-07T01:26:18.171Z,39.50
2018-02-07T01:27:21.177Z,35.50
2018-02-07T01:28:24.143Z,34.00
2018-02-07T01:29:27.059Z,29.50
2018-02-07T01:30:29.978Z,35.00
2018-02-07T01:31:33.176Z,38.50
2018-02-07T01:32:36.047Z,34.00
2018-02-07T01:33:38.901Z,42.00
2018-02-07T01:34:41.797Z,38.50
2018-02-07T01:35:44.685Z,37.50
2018-02-07T01:36:47.540Z,34.00
2018-02-07T01:37:50.805Z,38.50
2018-02-07T01:38:53.678Z,42.00
2018-02-07T01:39:56.560Z,37.00
2018-02-07T01:40:59.475Z,37.00
2018-02-07T01:42:02.441Z,35.00
2018-02-07T01:43:05.424Z,36.50
2018-02-07T01:44:08.664Z,33.50
2018-02-07T01:45:11.600Z,39.50
2018-02-07T01:46:14.486Z,38.00
2018-02-07T01:47:17.359Z,37.50
2018-02-07T01:48:20.295Z,40.50
2018-02-07T01:49:23.214Z,39.00
2018-02-07T01:50:26.422Z,46.00
2018-02-07T01:51:29.366Z,40.50
2018-02-07T01:52:32.339Z,43.00
2018-02-07T01:53:35.271Z,43.50
2018-02-07T01:54:38.214Z,35.50
2018-02-07T01:55:41.154Z,34.00
2018-02-07T01:56:44.406Z,40.50
2018-02-07T01:57:47.314Z,41.00
2018-02-07T01:58:50.271Z,45.50
2018-02-07T01:59:53.163Z,40.50
2018-02-07T02:00:56.191Z,37.00
2018-02-07T02:01:59.237Z,39.50
2018-02-07T02:03:02.536Z,38.00
2018-02-07T02:04:05.452Z,35.50
2018-02-07T02:05:08.373Z,36.50
2018-02-07T02:06:11.322Z,31.00
2018-02-07T02:07:14.361Z,35.00
2018-02-07T02:08:17.259Z,41.00
2018-02-07T02:09:20.469Z,37.00
2018-02-07T02:10:23.391Z,36.00
2018-02-07T02:11:26.363Z,36.00
2018-02-07T02:12:29.257Z,32.00
2018-02-07T02:13:32.175Z,35.50
2018-02-07T02:14:35.108Z,40.00
2018-02-07T02:15:38.228Z,40.00
2018-02-07T02:16:41.081Z,36.00
2018-02-07T02:17:43.899Z,35.50
2018-02-07T02:18:46.744Z,44.00
2018-02-07T02:19:49.614Z,38.00
2018-02-07T02:20:52.528Z,40.50
2018-02-07T02:21:55.740Z,36.50
2018-02-07T02:22:58.694Z,36.00
2018-02-07T02:24:01.622Z,31.50
2018-02-07T02:25:04.558Z,34.00
2018-02-07T02:26:07.481Z,38.50
2018-02-07T02:27:10.459Z,35.00
2018-02-07T02:28:13.670Z,26.50
2018-02-07T02:29:16.609Z,35.00
2018-02-07T02:30:19.534Z,33.00
2018-02-07T02:31:22.359Z,36.50
2018-02-07T02:32:25.309Z,34.00
2018-02-07T02:33:28.238Z,33.50
2018-02-07T02:34:31.527Z,38.00
2018-02-07T02:35:34.483Z,25.00
2018-02-07T02:36:37.394Z,34.50
2018-02-07T02:37:40.311Z,43.50
2018-02-07T02:38:43.219Z,35.50
2018-02-07T02:39:46.141Z,37.50
2018-02-07T02:40:49.379Z,29.00
2018-02-07T02:41:52.292Z,30.00
2018-02-07T02:42:55.259Z,32.50
2018-02-07T02:43:58.160Z,38.50
2018-02-07T02:45:01.075Z,35.50
2018-02-07T02:46:04.064Z,38.00
2018-02-07T02:47:07.255Z,35.00
2018-02-07T02:48:10.185Z,36.50
2018-02-07T02:49:13.134Z,40.00
2018-02-07T02:50:16.094Z,36.50
2018-02-07T02:51:19.022Z,31.50
2018-02-07T02:52:21.971Z,34.50
2018-02-07T02:53:25.201Z,35.50
2018-02-07T02:54:28.127Z,33.50
2018-02-07T02:55:31.055Z,39.50
2018-02-07T02:56:34.782Z,30.50
2018-02-07T02:57:37.696Z,34.00
2018-02-07T02:58:40.643Z,30.50
2018-02-07T02:59:43.889Z,37.50
2018-02-07T03:00:46.798Z,37.00
2018-02-07T03:01:49.742Z,34.50
2018-02-07T03:02:52.634Z,40.50
2018-02-07T03:03:55.570Z,37.50
2018-02-07T03:04:58.504Z,44.00
2018-02-07T03:06:01.437Z,40.50
2018-02-07T03:07:04.518Z,36.00
2018-02-07T03:08:07.439Z,39.00
2018-02-07T03:09:10.405Z,41.00
2018-02-07T03:10:13.351Z,42.00
2018-02-07T03:11:16.639Z,39.50
2018-02-07T03:12:19.660Z,40.50
2018-02-07T03:13:22.587Z,39.00
2018-02-07T03:14:25.550Z,39.50
2018-02-07T03:15:28.495Z,40.50
2018-02-07T03:16:31.446Z,40.50
2018-02-07T03:17:34.662Z,38.00
2018-02-07T03:18:37.582Z,38.50
2018-02-07T03:19:40.503Z,36.00
2018-02-07T03:20:43.863Z,36.50
2018-02-07T03:21:46.989Z,42.00
2018-02-07T03:22:49.912Z,35.00
2018-02-07T03:23:53.154Z,36.50
2018-02-07T03:24:56.081Z,41.00
2018-02-07T03:25:58.970Z,33.50
2018-02-07T03:27:01.937Z,34.00
2018-02-07T03:28:04.848Z,36.50
2018-02-07T03:29:07.860Z,32.50
2018-02-07T03:30:11.233Z,32.50
2018-02-07T03:31:14.171Z,33.00
2018-02-07T03:32:17.103Z,36.50
2018-02-07T03:33:20.018Z,42.50
2018-02-07T03:34:23.227Z,36.50
2018-02-07T03:35:26.118Z,34.50
2018-02-07T03:36:29.388Z,32.50
2018-02-07T03:37:32.411Z,33.00
2018-02-07T03:38:35.495Z,32.00
2018-02-07T03:39:38.431Z,29.00
2018-02-07T03:40:41.376Z,31.00
2018-02-07T03:41:44.263Z,36.00
2018-02-07T03:42:47.454Z,32.50
2018-02-07T03:43:50.422Z,34.50
2018-02-07T03:44:53.351Z,32.50
2018-02-07T03:45:56.307Z,37.50
2018-02-07T03:46:59.227Z,34.00
2018-02-07T03:48:02.166Z,41.50
2018-02-07T03:49:05.386Z,33.00
2018-02-07T03:50:08.300Z,34.00
2018-02-07T03:51:11.218Z,40.00
2018-02-07T03:52:14.127Z,35.00
2018-02-07T03:53:17.047Z,36.50
2018-02-07T03:54:19.992Z,35.00
2018-02-07T03:55:23.238Z,34.50
2018-02-07T03:56:26.171Z,39.00
2018-02-07T03:57:29.156Z,33.50
2018-02-07T03:58:32.080Z,36.00
2018-02-07T03:59:35.023Z,29.50
2018-02-07T04:00:37.965Z,36.00
2018-02-07T04:01:41.188Z,41.00
2018-02-07T04:02:44.132Z,34.50
2018-02-07T04:03:47.072Z,35.00
2018-02-07T04:04:50.023Z,30.50
2018-02-07T04:05:52.957Z,31.50
2018-02-07T04:06:55.870Z,31.50
2018-02-07T04:07:59.130Z,33.50
2018-02-07T04:09:02.035Z,33.50
2018-02-07T04:10:05.004Z,33.00
2018-02-07T04:11:08.031Z,35.50
2018-02-07T04:12:11.169Z,33.50
2018-02-07T04:13:14.080Z,34.00
2018-02-07T04:14:17.293Z,32.50
2018-02-07T04:15:20.230Z,35.00
2018-02-07T04:16:23.209Z,38.50
2018-02-07T04:17:26.127Z,33.50
2018-02-07T04:18:29.109Z,36.00
2018-02-07T04:19:32.067Z,37.50
2018-02-07T04:20:35.004Z,29.00
2018-02-07T04:21:38.007Z,37.00
2018-02-07T04:22:40.942Z,34.50
2018-02-07T04:23:43.868Z,32.00
2018-02-07T04:24:46.807Z,36.00
2018-02-07T04:25:50.016Z,35.50
2018-02-07T04:26:52.919Z,40.00
2018-02-07T04:27:55.891Z,32.50
2018-02-07T04:28:58.830Z,30.00
2018-02-07T04:30:01.769Z,39.50
2018-02-07T04:31:04.730Z,35.00
2018-02-07T04:32:07.967Z,32.50
2018-02-07T04:33:10.896Z,31.00
2018-02-07T04:34:13.794Z,42.50
2018-02-07T04:35:16.649Z,40.50
2018-02-07T04:36:19.518Z,31.00
2018-02-07T04:37:22.500Z,33.50
2018-02-07T04:38:25.778Z,27.00
2018-02-07T04:39:28.706Z,35.50
2018-02-07T04:40:31.643Z,32.00
2018-02-07T04:41:34.550Z,38.50
2018-02-07T04:42:37.520Z,37.00
2018-02-07T04:43:40.444Z,32.00
2018-02-07T04:44:43.671Z,35.00
2018-02-07T04:45:46.591Z,37.00
2018-02-07T04:46:49.510Z,33.50
2018-02-07T04:47:52.433Z,31.50
2018-02-07T04:48:55.351Z,40.00
2018-02-07T04:49:58.270Z,36.50
2018-02-07T04:51:01.661Z,37.50
2018-02-07T04:52:04.622Z,36.00
2018-02-07T04:53:07.570Z,36.00
2018-02-07T04:54:10.496Z,38.50
2018-02-07T04:55:13.436Z,34.00
2018-02-07T04:56:16.360Z,36.50
2018-02-07T04:57:19.601Z,35.50
2018-02-07T04:58:22.509Z,33.00
2018-02-07T04:59:25.468Z,36.00
2018-02-07T05:00:28.412Z,31.00
2018-02-07T05:01:31.324Z,40.00
2018-02-07T05:02:34.217Z,39.50
2018-02-07T05:03:37.414Z,36.00
2018-02-07T05:04:40.329Z,32.00
2018-02-07T05:05:43.246Z,29.50
2018-02-07T05:06:46.155Z,33.50
2018-02-07T05:07:49.067Z,36.50
2018-02-07T05:08:51.990Z,33.50
2018-02-07T05:09:55.178Z,35.50
2018-02-07T05:10:58.121Z,38.00
2018-02-07T05:12:01.062Z,40.00
2018-02-07T05:13:03.991Z,34.50
2018-02-07T05:14:06.929Z,36.50
2018-02-07T05:15:09.840Z,34.00
2018-02-07T05:16:13.056Z,38.50
2018-02-07T05:17:15.972Z,37.50
2018-02-07T05:18:18.903Z,40.00
2018-02-07T05:19:21.846Z,38.00
2018-02-07T05:20:24.759Z,40.50
2018-02-07T05:21:27.717Z,42.50
2018-02-07T05:22:30.912Z,40.50
2018-02-07T05:23:33.846Z,32.50
2018-02-07T05:24:36.812Z,38.50
2018-02-07T05:25:39.742Z,36.00
2018-02-07T05:26:42.639Z,34.00
2018-02-07T05:27:45.721Z,39.50
2018-02-07T05:28:48.931Z,38.50
2018-02-07T05:29:51.874Z,35.50
2018-02-07T05:30:54.837Z,37.50
2018-02-07T05:31:57.739Z,40.00
2018-02-07T05:33:00.687Z,34.00
2018-02-07T05:34:03.599Z,35.50
2018-02-07T05:35:06.894Z,39.00
2018-02-07T05:36:09.821Z,33.50
2018-02-07T05:37:12.736Z,38.00
2018-02-07T05:38:15.604Z,31.50
2018-02-07T05:39:18.461Z,43.50
2018-02-07T05:40:21.335Z,37.00
2018-02-07T05:41:24.481Z,41.50
2018-02-07T05:42:27.320Z,34.00
2018-02-07T05:43:30.119Z,40.50
2018-02-07T05:44:33.072Z,34.50
2018-02-07T05:45:36.020Z,39.00
2018-02-07T05:46:38.974Z,43.50
2018-02-07T05:47:42.186Z,38.00
2018-02-07T05:48:45.125Z,38.50
2018-02-07T05:49:48.198Z,36.00
2018-02-07T05:50:51.150Z,32.50
2018-02-07T05:51:54.104Z,38.50
2018-02-07T05:52:57.046Z,37.00
2018-02-07T05:54:00.045Z,38.50
2018-02-07T05:55:02.990Z,37.00
2018-02-07T05:56:06.091Z,35.50
2018-02-07T05:57:08.972Z,36.00
2018-02-07T05:58:11.886Z,38.00
2018-02-07T05:59:15.132Z,30.00
2018-02-07T06:00:18.090Z,47.50
2018-02-07T06:01:21.002Z,34.00
2018-02-07T06:02:23.936Z,39.00
2018-02-07T06:03:26.880Z,35.00
2018-02-07T06:04:29.797Z,37.00
2018-02-07T06:05:33.164Z,55.50
2018-02-07T06:06:36.266Z,45.00
2018-02-07T06:07:39.553Z,48.50
2018-02-07T06:08:42.578Z,45.50
2018-02-07T06:09:45.551Z,43.50
2018-02-07T06:10:48.510Z,48.50
2018-02-07T06:11:51.802Z,38.50
2018-02-07T06:12:54.843Z,37.50
2018-02-07T06:13:57.842Z,37.50
2018-02-07T06:15:00.857Z,30.50
2018-02-07T06:16:03.790Z,38.50
2018-02-07T06:17:06.761Z,35.00
2018-02-07T06:18:10.084Z,40.50
2018-02-07T06:19:13.112Z,38.50
2018-02-07T06:20:16.049Z,33.50
2018-02-07T06:21:19.259Z,31.50
2018-02-07T06:22:22.210Z,39.00
2018-02-07T06:23:25.169Z,40.00
2018-02-07T06:24:28.417Z,33.00
2018-02-07T06:25:31.806Z,36.50
2018-02-07T06:26:34.699Z,37.50
2018-02-07T06:27:37.720Z,38.50
2018-02-07T06:28:40.643Z,36.50
2018-02-07T06:29:43.588Z,40.50
2018-02-07T06:30:46.788Z,38.00
2018-02-07T06:31:49.768Z,39.00
2018-02-07T06:32:52.693Z,35.00
2018-02-07T06:33:55.567Z,45.50
2018-02-07T06:34:58.543Z,37.50
2018-02-07T06:36:01.619Z,42.50
2018-02-07T06:37:04.934Z,39.50
2018-02-07T06:38:07.880Z,35.00
2018-02-07T06:39:10.820Z,29.00
2018-02-07T06:40:13.779Z,39.50
2018-02-07T06:41:16.698Z,39.00
2018-02-07T06:42:19.639Z,37.50
2018-02-07T06:43:23.022Z,43.00
2018-02-07T06:44:25.968Z,35.00
2018-02-07T06:45:28.907Z,39.50
2018-02-07T06:46:31.844Z,34.50
2018-02-07T06:47:34.914Z,34.00
2018-02-07T06:48:37.870Z,43.00
2018-02-07T06:49:41.142Z,38.00
2018-02-07T06:50:44.106Z,43.00
2018-02-07T06:51:47.033Z,38.00
2018-02-07T06:52:49.960Z,37.00
2018-02-07T06:53:52.867Z,41.50
2018-02-07T06:54:55.822Z,35.50
2018-02-07T06:55:59.205Z,39.00
2018-02-07T06:57:02.115Z,39.50
2018-02-07T06:58:05.168Z,33.50
2018-02-07T06:59:08.095Z,34.50
2018-02-07T07:00:11.057Z,34.00
2018-02-07T07:01:14.036Z,36.50
2018-02-07T07:02:16.976Z,38.00
2018-02-07T07:03:19.918Z,28.00
2018-02-07T07:04:22.848Z,35.50
2018-02-07T07:05:25.786Z,37.00
2018-02-07T07:06:28.731Z,37.50
2018-02-07T07:07:31.841Z,35.50
2018-02-07T07:08:35.316Z,38.50
2018-02-07T07:09:38.234Z,35.50
2018-02-07T07:10:41.234Z,30.50
2018-02-07T07:11:44.244Z,38.00
2018-02-07T07:12:47.178Z,40.00
2018-02-07T07:13:50.130Z,33.00
2018-02-07T07:14:53.468Z,34.00
2018-02-07T07:15:56.395Z,43.00
2018-02-07T07:16:59.333Z,40.50
2018-02-07T07:18:02.264Z,37.50
2018-02-07T07:19:05.210Z,39.50
2018-02-07T07:20:08.148Z,52.50
2018-02-07T07:21:11.548Z,55.50
2018-02-07T07:22:14.462Z,52.50
2018-02-07T07:23:17.590Z,57.00
2018-02-07T07:24:20.514Z,59.00
2018-02-07T07:25:23.477Z,45.00
2018-02-07T07:26:26.414Z,53.00
2018-02-07T07:27:29.973Z,48.50
2018-02-07T07:28:32.936Z,40.50
2018-02-07T07:29:35.905Z,46.50
2018-02-07T07:30:38.840Z,36.00
2018-02-07T07:31:41.761Z,43.00
2018-02-07T07:32:44.675Z,42.00
2018-02-07T07:33:48.156Z,47.00
2018-02-07T07:34:51.187Z,42.00
2018-02-07T07:35:54.110Z,44.00
2018-02-07T07:36:57.046Z,47.50
2018-02-07T07:38:00.031Z,37.50
2018-02-07T07:39:03.186Z,47.00
2018-02-07T07:40:06.585Z,50.00
2018-02-07T07:41:09.540Z,47.00
2018-02-07T07:42:12.609Z,41.00
2018-02-07T07:43:15.460Z,47.50
2018-02-07T07:44:18.442Z,50.50
2018-02-07T07:45:21.357Z,44.00
2018-02-07T07:46:24.578Z,37.00
2018-02-07T07:47:27.499Z,43.00
2018-02-07T07:48:30.519Z,34.50
2018-02-07T07:49:33.650Z,45.00
2018-02-07T07:50:36.585Z,45.00
2018-02-07T07:51:39.524Z,42.00
2018-02-07T07:52:42.913Z,46.50
2018-02-07T07:53:45.873Z,51.00
2018-02-07T07:54:49.079Z,47.50
2018-02-07T07:55:51.999Z,41.50
2018-02-07T07:56:54.899Z,49.00
2018-02-07T07:57:57.814Z,42.50
2018-02-07T07:59:01.317Z,38.00
2018-02-07T08:00:04.287Z,54.00
2018-02-07T08:01:07.340Z,46.50
2018-02-07T08:02:10.318Z,42.50
2018-02-07T08:03:13.324Z,44.00
2018-02-07T08:04:16.255Z,52.00
2018-02-07T08:05:19.524Z,52.00
2018-02-07T08:06:22.494Z,49.00
2018-02-07T08:07:25.446Z,49.00
2018-02-07T08:08:28.391Z,45.00
2018-02-07T08:09:31.420Z,46.50
2018-02-07T08:10:34.370Z,46.50
2018-02-07T08:11:37.591Z,40.00
2018-02-07T08:12:40.527Z,40.00
2018-02-07T08:13:43.449Z,46.50
2018-02-07T08:14:46.371Z,36.50
2018-02-07T08:15:49.308Z,45.50
2018-02-07T08:16:52.275Z,47.50
2018-02-07T08:17:55.555Z,42.00
2018-02-07T08:18:58.498Z,42.50
2018-02-07T08:20:01.455Z,38.00
2018-02-07T08:21:04.299Z,38.50
2018-02-07T08:22:07.138Z,42.50
2018-02-07T08:23:09.981Z,50.00
2018-02-07T08:24:13.236Z,41.00
2018-02-07T08:25:16.175Z,40.00
2018-02-07T08:26:19.151Z,44.50
2018-02-07T08:27:22.001Z,48.50
2018-02-07T08:28:25.036Z,49.00
2018-02-07T08:29:27.985Z,44.00
2018-02-07T08:30:31.403Z,45.00
2018-02-07T08:31:34.355Z,44.50
2018-02-07T08:32:37.952Z,52.50
2018-02-07T08:33:40.930Z,44.00
2018-02-07T08:34:43.930Z,37.50
2018-02-07T08:35:46.942Z,42.00
2018-02-07T08:36:50.032Z,53.00
2018-02-07T08:37:52.945Z,47.00
2018-02-07T08:38:55.917Z,40.50
2018-02-07T08:39:58.878Z,44.00
2018-02-07T08:41:02.132Z,39.00
2018-02-07T08:42:05.102Z,52.00
2018-02-07T08:43:08.369Z,48.50
2018-02-07T08:44:11.350Z,41.50
2018-02-07T08:45:14.330Z,43.50
2018-02-07T08:46:17.262Z,46.00
2018-02-07T08:47:20.250Z,42.00
2018-02-07T08:48:23.218Z,39.00
2018-02-07T08:49:26.583Z,49.00
2018-02-07T08:50:29.515Z,42.50
2018-02-07T08:51:32.651Z,43.50
2018-02-07T08:52:35.578Z,49.00
2018-02-07T08:53:38.516Z,45.50
2018-02-07T08:54:41.555Z,47.00
2018-02-07T08:55:44.986Z,41.50
2018-02-07T08:56:48.000Z,46.00
2018-02-07T08:57:50.913Z,45.00
2018-02-07T08:58:53.875Z,43.00
2018-02-07T08:59:56.790Z,39.50
2018-02-07T09:00:59.711Z,43.00
2018-02-07T09:02:02.994Z,46.00
2018-02-07T09:03:06.007Z,45.00
2018-02-07T09:04:08.922Z,45.00
2018-02-07T09:05:11.905Z,46.50
2018-02-07T09:06:14.886Z,48.50
2018-02-07T09:07:17.858Z,50.00
2018-02-07T09:08:21.327Z,46.00
2018-02-07T09:09:24.271Z,42.50
2018-02-07T09:10:27.212Z,47.00
2018-02-07T09:11:30.133Z,43.50
2018-02-07T09:12:33.142Z,48.00
2018-02-07T09:13:36.149Z,45.50
2018-02-07T09:14:39.425Z,45.00
2018-02-07T09:15:42.431Z,42.50
2018-02-07T09:16:45.372Z,50.50
2018-02-07T09:17:48.367Z,50.00
2018-02-07T09:18:51.334Z,55.50
2018-02-07T09:19:54.362Z,47.50
2018-02-07T09:20:57.629Z,54.50
2018-02-07T09:22:00.538Z,49.00
2018-02-07T09:23:03.492Z,39.00
2018-02-07T09:24:06.478Z,42.00
2018-02-07T09:25:09.590Z,53.50
2018-02-07T09:26:12.729Z,48.00
2018-02-07T09:27:16.588Z,41.50
2018-02-07T09:28:19.564Z,44.50
2018-02-07T09:29:22.654Z,47.50
2018-02-07T09:30:26.341Z,42.00
2018-02-07T09:31:30.018Z,48.50
2018-02-07T09:32:33.090Z,47.50
2018-02-07T09:33:36.543Z,44.50
2018-02-07T09:34:40.703Z,41.50
2018-02-07T09:35:44.870Z,41.00
2018-02-07T09:36:49.238Z,50.00
2018-02-07T09:37:53.303Z,43.00
2018-02-07T09:38:56.535Z,49.00
2018-02-07T09:40:00.240Z,36.50
2018-02-07T09:41:03.420Z,49.50
2018-02-07T09:42:06.551Z,42.00
2018-02-07T09:43:10.412Z,46.00
2018-02-07T09:44:13.991Z,43.00
2018-02-07T09:45:17.373Z,45.50
2018-02-07T09:46:21.572Z,47.50
2018-02-07T09:47:24.730Z,44.50
2018-02-07T09:48:28.342Z,40.00
2018-02-07T09:49:31.791Z,49.00
2018-02-07T09:50:36.218Z,44.00
2018-02-07T09:51:39.263Z,47.50
2018-02-07T09:52:42.757Z,47.00
2018-02-07T09:53:48.650Z,48.00
2018-02-07T09:54:54.381Z,51.00
2018-02-07T09:55:59.314Z,49.00
2018-02-07T09:57:02.999Z,46.50
2018-02-07T09:58:06.932Z,48.00
2018-02-07T09:59:12.210Z,53.50
2018-02-07T10:00:15.664Z,49.00
2018-02-07T10:01:19.420Z,42.50
2018-02-07T10:02:22.889Z,46.50
2018-02-07T10:03:26.512Z,42.00
2018-02-07T10:04:30.349Z,50.50
2018-02-07T10:05:34.882Z,49.00
2018-02-07T10:06:38.116Z,46.00
2018-02-07T10:07:42.129Z,51.50
2018-02-07T10:08:45.557Z,48.50
2018-02-07T10:09:48.520Z,42.00
2018-02-07T10:10:51.736Z,39.50
2018-02-07T10:11:55.489Z,46.00
2018-02-07T10:12:58.418Z,46.00
2018-02-07T10:14:01.313Z,44.00
2018-02-07T10:15:04.227Z,49.50
2018-02-07T10:16:07.139Z,34.50
2018-02-07T10:17:10.124Z,37.00
2018-02-07T10:18:13.262Z,31.00
2018-02-07T10:19:16.027Z,37.50
2018-02-07T10:20:18.802Z,36.00
2018-02-07T10:21:21.583Z,37.00
2018-02-07T10:22:24.400Z,43.00
2018-02-07T10:23:27.324Z,46.50
2018-02-07T10:24:30.568Z,39.50
2018-02-07T10:25:33.544Z,37.50
2018-02-07T10:26:36.536Z,46.00
2018-02-07T10:27:39.437Z,38.00
2018-02-07T10:28:42.382Z,38.50
2018-02-07T10:29:45.336Z,42.50
2018-02-07T10:30:48.719Z,40.50
2018-02-07T10:31:51.685Z,36.50
2018-02-07T10:32:54.773Z,36.50
2018-02-07T10:33:57.703Z,40.00
2018-02-07T10:35:00.693Z,40.50
2018-02-07T10:36:03.668Z,37.00
2018-02-07T10:37:07.089Z,39.00
2018-02-07T10:38:09.939Z,38.50
2018-02-07T10:39:12.882Z,36.50
2018-02-07T10:40:15.805Z,46.00
2018-02-07T10:41:18.780Z,36.50
2018-02-07T10:42:21.700Z,45.00
2018-02-07T10:43:25.088Z,44.00
2018-02-07T10:44:28.285Z,37.50
2018-02-07T10:45:31.168Z,38.00
2018-02-07T10:46:34.015Z,39.00
2018-02-07T10:47:36.916Z,45.50
2018-02-07T10:48:39.749Z,45.50
2018-02-07T10:49:43.311Z,40.50
2018-02-07T10:50:46.306Z,44.50
2018-02-07T10:51:49.273Z,49.50
2018-02-07T10:52:52.326Z,45.00
2018-02-07T10:53:55.336Z,45.00
2018-02-07T10:54:58.356Z,44.50
2018-02-07T10:56:01.641Z,46.50
2018-02-07T10:57:04.595Z,42.50
2018-02-07T10:58:07.586Z,51.00
2018-02-07T10:59:10.621Z,44.00
2018-02-07T11:00:13.696Z,46.00
2018-02-07T11:01:16.742Z,36.00
2018-02-07T11:02:20.200Z,44.00
2018-02-07T11:03:23.218Z,44.50
2018-02-07T11:04:26.154Z,41.50
2018-02-07T11:05:29.115Z,42.50
2018-02-07T11:06:32.033Z,44.00
2018-02-07T11:07:34.991Z,41.00
2018-02-07T11:08:38.393Z,45.00
2018-02-07T11:09:41.393Z,42.50
2018-02-07T11:10:44.272Z,37.00
2018-02-07T11:11:47.219Z,48.00
2018-02-07T11:12:50.201Z,45.50
2018-02-07T11:13:53.205Z,42.50
2018-02-07T11:14:56.524Z,46.50
2018-02-07T11:16:00.477Z,41.00
2018-02-07T11:17:08.314Z,41.50
2018-02-07T11:18:11.440Z,43.00
2018-02-07T11:19:14.509Z,37.00
2018-02-07T11:20:18.222Z,43.00
2018-02-07T11:21:21.617Z,46.50
2018-02-07T11:22:24.994Z,49.00
2018-02-07T11:23:28.626Z,43.50
2018-02-07T11:24:31.605Z,46.00
2018-02-07T11:25:34.511Z,45.00
2018-02-07T11:26:37.650Z,54.50
2018-02-07T11:27:41.033Z,44.00
2018-02-07T11:28:45.796Z,41.50
2018-02-07T11:29:48.826Z,43.00
2018-02-07T11:30:51.951Z,45.50
2018-02-07T11:31:55.626Z,45.50
2018-02-07T11:32:59.013Z,48.50
2018-02-07T11:34:02.418Z,36.00
2018-02-07T11:35:05.369Z,44.00
2018-02-07T11:36:08.461Z,46.00
2018-02-07T11:37:11.535Z,54.50
2018-02-07T11:38:14.455Z,39.50
2018-02-07T11:39:17.418Z,44.50
2018-02-07T11:40:21.017Z,41.50
2018-02-07T11:41:24.091Z,43.00
2018-02-07T11:42:27.112Z,47.50
2018-02-07T11:43:30.143Z,41.50
2018-02-07T11:44:33.683Z,43.50
2018-02-07T11:45:37.672Z,45.00
2018-02-07T11:46:40.887Z,40.50
2018-02-07T11:47:43.784Z,53.50
2018-02-07T11:48:47.106Z,49.00
2018-02-07T11:49:50.397Z,55.00
2018-02-07T11:50:53.633Z,48.00
2018-02-07T11:51:57.374Z,40.50
2018-02-07T11:53:00.884Z,40.50
2018-02-07T11:54:05.514Z,37.00
2018-02-07T11:55:08.911Z,42.50
2018-02-07T11:56:12.580Z,45.00
2018-02-07T11:57:15.848Z,38.50
2018-02-07T11:58:20.024Z,38.50
2018-02-07T11:59:23.403Z,35.50
2018-02-07T12:00:26.696Z,42.00
2018-02-07T12:01:29.811Z,36.50
2018-02-07T12:02:32.886Z,40.50
2018-02-07T12:03:35.880Z,40.50
2018-02-07T12:04:39.106Z,52.00
2018-02-07T12:05:42.397Z,47.00
2018-02-07T12:06:45.439Z,52.50
2018-02-07T12:07:48.471Z,41.00
2018-02-07T12:08:51.774Z,34.00
2018-02-07T12:09:54.608Z,34.00
2018-02-07T12:10:59.681Z,37.00
2018-02-07T12:12:03.013Z,30.50
2018-02-07T12:13:06.194Z,35.50
2018-02-07T12:14:09.515Z,33.00
2018-02-07T12:15:14.738Z,34.50
2018-02-07T12:16:18.401Z,35.00
2018-02-07T12:17:22.119Z,34.50
2018-02-07T12:18:25.773Z,37.50
2018-02-07T12:19:29.513Z,36.50
2018-02-07T12:20:32.494Z,24.50
2018-02-07T12:21:35.820Z,33.00
2018-02-07T12:22:39.216Z,37.50
2018-02-07T12:23:42.964Z,33.00
2018-02-07T12:24:46.979Z,33.00
2018-02-07T12:25:50.204Z,34.00
2018-02-07T12:26:53.219Z,38.00
2018-02-07T12:27:56.570Z,30.00
2018-02-07T12:29:01.236Z,36.50
2018-02-07T12:30:05.262Z,35.00
2018-02-07T12:31:09.038Z,52.50
2018-02-07T12:32:12.866Z,46.00
2018-02-07T12:33:16.873Z,59.50
2018-02-07T12:34:21.350Z,49.00
2018-02-07T12:35:26.204Z,42.00
2018-02-07T12:36:30.187Z,50.00
2018-02-07T12:37:35.004Z,43.00
2018-02-07T12:38:39.066Z,48.50
2018-02-07T12:39:42.238Z,46.00
2018-02-07T12:40:46.415Z,44.75
2018-02-07T12:41:50.647Z,45.25
2018-02-07T12:42:54.272Z,40.50
2018-02-07T12:43:58.274Z,41.75
2018-02-07T12:45:01.359Z,46.00
2018-02-07T12:46:04.613Z,37.00
2018-02-07T12:47:08.244Z,41.75
2018-02-07T12:48:12.184Z,47.00
2018-02-07T12:49:15.106Z,40.75
2018-02-07T12:50:18.545Z,38.50
2018-02-07T12:51:22.992Z,45.25
2018-02-07T12:52:27.871Z,44.75
2018-02-07T12:53:32.082Z,39.25
2018-02-07T12:54:35.022Z,48.25
2018-02-07T12:55:38.063Z,49.25
2018-02-07T12:56:42.556Z,45.25
2018-02-07T12:57:45.544Z,49.00
2018-02-07T12:58:48.556Z,38.75
2018-02-07T12:59:51.570Z,38.75
2018-02-07T13:00:55.018Z,43.75
2018-02-07T13:01:58.866Z,39.25
2018-02-07T13:03:04.321Z,38.75
2018-02-07T13:04:08.276Z,41.25
2018-02-07T13:05:12.287Z,39.25
2018-02-07T13:06:17.682Z,38.00
2018-02-07T13:07:22.265Z,38.25
2018-02-07T13:08:26.237Z,39.25
2018-02-07T13:09:32.540Z,39.00
2018-02-07T13:10:35.659Z,41.25
2018-02-07T13:11:39.990Z,41.25
2018-02-07T13:12:43.209Z,39.75
2018-02-07T13:13:48.095Z,38.25
2018-02-07T13:14:53.763Z,39.50
2018-02-07T13:15:58.016Z,41.50
2018-02-07T13:17:03.286Z,37.25
2018-02-07T13:18:10.917Z,38.00
2018-02-07T13:19:16.074Z,34.25
2018-02-07T13:20:20.453Z,37.75
2018-02-07T13:21:25.644Z,43.50
2018-02-07T13:22:31.168Z,38.00
2018-02-07T13:23:36.051Z,42.50
2018-02-07T13:24:40.574Z,37.75
2018-02-07T13:25:46.682Z,43.00
2018-02-07T13:26:51.874Z,42.25
2018-02-07T13:27:56.879Z,43.25
2018-02-07T13:29:01.982Z,48.00
2018-02-07T13:30:05.303Z,37.00
2018-02-07T13:31:08.406Z,44.50
2018-02-07T13:32:12.876Z,41.25
2018-02-07T13:33:17.704Z,39.25